sensor_id;sensor_type;location;lat;lon;timestamp;pressure;altitude;pressure_sealevel;temperature;humidity
14612;BME280;7392;52.078;11.650;2023-03-24T00:00:44;99743.31;;;9.93;100.00
14612;BME280;7392;52.078;11.650;2023-03-24T00:03:12;99744.22;;;9.92;100.00
14612;BME280;7392;52.078;11.650;2023-03-24T00:05:44;99738.03;;;9.92;100.00
14612;BME280;7392;52.078;11.650;2023-03-24T00:08:15;99729.19;;;9.91;100.00
14612;BME280;7392;52.078;11.650;2023-03-24T00:10:44;99733.63;;;9.92;100.00
14612;BME280;7392;52.078;11.650;2023-03-24T00:13:13;99729.13;;;9.96;100.00
14612;BME280;7392;52.078;11.650;2023-03-24T00:15:41;99724.69;;;9.97;100.00
14612;BME280;7392;52.078;11.650;2023-03-24T00:18:10;99716.75;;;9.97;100.00
14612;BME280;7392;52.078;11.650;2023-03-24T00:20:38;99702.59;;;9.98;100.00
14612;BME280;7392;52.078;11.650;2023-03-24T00:23:08;99701.69;;;9.99;100.00
14612;BME280;7392;52.078;11.650;2023-03-24T00:25:36;99691.97;;;9.98;100.00
14612;BME280;7392;52.078;11.650;2023-03-24T00:28:05;99688.44;;;9.97;100.00
14612;BME280;7392;52.078;11.650;2023-03-24T00:30:35;99680.47;;;9.97;100.00
14612;BME280;7392;52.078;11.650;2023-03-24T00:33:03;99677.81;;;9.97;100.00
14612;BME280;7392;52.078;11.650;2023-03-24T00:35:30;99678.69;;;9.99;100.00
14612;BME280;7392;52.078;11.650;2023-03-24T00:37:58;99684.88;;;10.00;100.00
14612;BME280;7392;52.078;11.650;2023-03-24T00:40:27;99676.00;;;10.01;100.00
14612;BME280;7392;52.078;11.650;2023-03-24T00:42:55;99673.31;;;10.02;100.00
14612;BME280;7392;52.078;11.650;2023-03-24T00:45:24;99665.31;;;10.05;100.00
14612;BME280;7392;52.078;11.650;2023-03-24T00:47:52;99651.13;;;10.09;100.00
14612;BME280;7392;52.078;11.650;2023-03-24T00:50:20;99637.72;;;10.16;100.00
14612;BME280;7392;52.078;11.650;2023-03-24T00:52:54;99649.09;;;10.22;100.00
14612;BME280;7392;52.078;11.650;2023-03-24T00:55:23;99642.81;;;10.26;100.00
14612;BME280;7392;52.078;11.650;2023-03-24T00:57:55;99635.72;;;10.30;100.00
14612;BME280;7392;52.078;11.650;2023-03-24T01:00:25;99637.41;;;10.36;100.00
14612;BME280;7392;52.078;11.650;2023-03-24T01:02:55;99627.63;;;10.38;100.00
14612;BME280;7392;52.078;11.650;2023-03-24T01:05:25;99630.22;;;10.41;100.00
14612;BME280;7392;52.078;11.650;2023-03-24T01:07:54;99624.84;;;10.45;100.00
14612;BME280;7392;52.078;11.650;2023-03-24T01:10:23;99621.19;;;10.51;100.00
14612;BME280;7392;52.078;11.650;2023-03-24T01:12:56;99621.06;;;10.57;100.00
14612;BME280;7392;52.078;11.650;2023-03-24T01:15:29;99625.38;;;10.63;100.00
14612;BME280;7392;52.078;11.650;2023-03-24T01:17:59;99619.97;;;10.68;100.00
14612;BME280;7392;52.078;11.650;2023-03-24T01:20:29;99624.31;;;10.72;100.00
14612;BME280;7392;52.078;11.650;2023-03-24T01:22:58;99620.66;;;10.76;100.00
14612;BME280;7392;52.078;11.650;2023-03-24T01:25:26;99619.75;;;10.78;100.00
14612;BME280;7392;52.078;11.650;2023-03-24T01:27:56;99614.44;;;10.78;100.00
14612;BME280;7392;52.078;11.650;2023-03-24T01:30:26;99622.38;;;10.80;100.00
14612;BME280;7392;52.078;11.650;2023-03-24T01:32:54;99614.50;;;10.75;100.00
14612;BME280;7392;52.078;11.650;2023-03-24T01:35:24;99619.84;;;10.72;100.00
14612;BME280;7392;52.078;11.650;2023-03-24T01:37:56;99612.03;;;10.66;100.00
14612;BME280;7392;52.078;11.650;2023-03-24T01:40:27;99608.59;;;10.61;100.00
14612;BME280;7392;52.078;11.650;2023-03-24T01:42:56;99602.50;;;10.56;100.00
14612;BME280;7392;52.078;11.650;2023-03-24T01:45:53;99607.91;;;10.51;100.00
14612;BME280;7392;52.078;11.650;2023-03-24T01:48:25;99602.66;;;10.46;100.00
14612;BME280;7392;52.078;11.650;2023-03-24T01:50:58;99594.78;;;10.42;100.00
14612;BME280;7392;52.078;11.650;2023-03-24T01:53:29;99593.13;;;10.38;100.00
14612;BME280;7392;52.078;11.650;2023-03-24T01:55:59;99583.47;;;10.34;100.00
14612;BME280;7392;52.078;11.650;2023-03-24T01:58:35;99581.72;;;10.31;100.00
14612;BME280;7392;52.078;11.650;2023-03-24T02:01:15;99572.03;;;10.28;100.00
14612;BME280;7392;52.078;11.650;2023-03-24T02:04:00;99568.59;;;10.23;100.00
14612;BME280;7392;52.078;11.650;2023-03-24T02:06:31;99558.03;;;10.20;100.00
14612;BME280;7392;52.078;11.650;2023-03-24T02:09:00;99558.13;;;10.16;100.00
14612;BME280;7392;52.078;11.650;2023-03-24T02:11:31;99553.78;;;10.11;100.00
14612;BME280;7392;52.078;11.650;2023-03-24T02:14:06;99548.50;;;10.10;100.00
14612;BME280;7392;52.078;11.650;2023-03-24T02:16:48;99546.78;;;10.07;100.00
14612;BME280;7392;52.078;11.650;2023-03-24T02:19:37;99538.06;;;10.01;100.00
14612;BME280;7392;52.078;11.650;2023-03-24T02:22:47;99546.09;;;9.98;100.00
14612;BME280;7392;52.078;11.650;2023-03-24T02:25:47;99539.94;;;9.96;100.00
14612;BME280;7392;52.078;11.650;2023-03-24T02:28:29;99530.25;;;9.95;100.00
14612;BME280;7392;52.078;11.650;2023-03-24T02:31:23;99530.25;;;9.95;100.00
14612;BME280;7392;52.078;11.650;2023-03-24T02:37:24;99513.50;;;9.91;100.00
14612;BME280;7392;52.078;11.650;2023-03-24T02:40:19;99514.38;;;9.91;100.00
14612;BME280;7392;52.078;11.650;2023-03-24T02:43:05;99509.09;;;9.90;100.00
14612;BME280;7392;52.078;11.650;2023-03-24T02:45:41;99507.38;;;9.89;100.00
14612;BME280;7392;52.078;11.650;2023-03-24T02:48:20;99505.59;;;9.89;100.00
14612;BME280;7392;52.078;11.650;2023-03-24T02:50:53;99498.47;;;9.91;100.00
14612;BME280;7392;52.078;11.650;2023-03-24T02:53:29;99484.31;;;9.92;100.00
14612;BME280;7392;52.078;11.650;2023-03-24T02:56:22;99481.63;;;9.94;100.00
14612;BME280;7392;52.078;11.650;2023-03-24T02:59:01;99470.09;;;9.95;100.00
14612;BME280;7392;52.078;11.650;2023-03-24T03:01:34;99470.94;;;9.97;100.00
14612;BME280;7392;52.078;11.650;2023-03-24T03:04:20;99458.56;;;9.98;100.00
14612;BME280;7392;52.078;11.650;2023-03-24T03:06:56;99463.88;;;9.98;100.00
14612;BME280;7392;52.078;11.650;2023-03-24T03:09:26;99462.03;;;10.01;100.00
14612;BME280;7392;52.078;11.650;2023-03-24T03:11:58;99462.00;;;10.03;100.00
14612;BME280;7392;52.078;11.650;2023-03-24T03:14:30;99437.16;;;10.07;100.00
14612;BME280;7392;52.078;11.650;2023-03-24T03:17:01;99440.56;;;10.14;100.00
14612;BME280;7392;52.078;11.650;2023-03-24T03:19:37;99435.16;;;10.18;100.00
14612;BME280;7392;52.078;11.650;2023-03-24T03:22:10;99435.00;;;10.24;100.00
14612;BME280;7392;52.078;11.650;2023-03-24T03:24:41;99424.31;;;10.29;100.00
14612;BME280;7392;52.078;11.650;2023-03-24T03:27:15;99434.00;;;10.32;100.00
14612;BME280;7392;52.078;11.650;2023-03-24T03:29:47;99433.06;;;10.34;100.00
14612;BME280;7392;52.078;11.650;2023-03-24T03:32:22;99440.97;;;10.37;100.00
14612;BME280;7392;52.078;11.650;2023-03-24T03:34:56;99446.25;;;10.39;100.00
14612;BME280;7392;52.078;11.650;2023-03-24T03:37:31;99434.72;;;10.40;100.00
14612;BME280;7392;52.078;11.650;2023-03-24T03:40:04;99432.84;;;10.43;100.00
14612;BME280;7392;52.078;11.650;2023-03-24T03:42:37;99441.69;;;10.45;100.00
14612;BME280;7392;52.078;11.650;2023-03-24T03:45:06;99434.56;;;10.47;100.00
14612;BME280;7392;52.078;11.650;2023-03-24T03:47:36;99428.28;;;10.50;100.00
14612;BME280;7392;52.078;11.650;2023-03-24T03:50:06;99413.25;;;10.51;100.00
14612;BME280;7392;52.078;11.650;2023-03-24T03:52:36;99409.69;;;10.52;100.00
14612;BME280;7392;52.078;11.650;2023-03-24T03:55:08;99422.84;;;10.56;100.00
14612;BME280;7392;52.078;11.650;2023-03-24T03:57:38;99416.59;;;10.59;100.00
14612;BME280;7392;52.078;11.650;2023-03-24T04:00:14;99424.50;;;10.60;100.00
14612;BME280;7392;52.078;11.650;2023-03-24T04:03:27;99424.44;;;10.63;100.00
14612;BME280;7392;52.078;11.650;2023-03-24T04:06:02;99419.13;;;10.63;100.00
14612;BME280;7392;52.078;11.650;2023-03-24T04:08:45;99420.91;;;10.64;100.00
14612;BME280;7392;52.078;11.650;2023-03-24T04:11:50;99397.88;;;10.65;100.00
14612;BME280;7392;52.078;11.650;2023-03-24T04:14:57;99400.44;;;10.68;100.00
14612;BME280;7392;52.078;11.650;2023-03-24T04:17:44;99398.50;;;10.76;100.00
14612;BME280;7392;52.078;11.650;2023-03-24T04:20:30;99393.94;;;10.81;100.00
14612;BME280;7392;52.078;11.650;2023-03-24T04:23:08;99392.97;;;10.84;100.00
14612;BME280;7392;52.078;11.650;2023-03-24T04:25:48;99396.34;;;10.91;100.00
14612;BME280;7392;52.078;11.650;2023-03-24T04:28:31;99398.88;;;10.97;100.00
14612;BME280;7392;52.078;11.650;2023-03-24T04:31:03;99403.22;;;10.99;100.00
14612;BME280;7392;52.078;11.650;2023-03-24T04:33:38;99404.06;;;11.01;100.00
14612;BME280;7392;52.078;11.650;2023-03-24T04:36:13;99401.34;;;11.03;100.00
14612;BME280;7392;52.078;11.650;2023-03-24T04:39:09;99404.84;;;11.05;100.00
14612;BME280;7392;52.078;11.650;2023-03-24T04:41:44;99392.44;;;11.06;100.00
14612;BME280;7392;52.078;11.650;2023-03-24T04:44:22;99394.19;;;11.07;100.00
14612;BME280;7392;52.078;11.650;2023-03-24T04:47:12;99402.13;;;11.08;100.00
14612;BME280;7392;52.078;11.650;2023-03-24T04:49:59;99385.28;;;11.09;100.00
14612;BME280;7392;52.078;11.650;2023-03-24T04:52:27;99379.91;;;11.11;100.00
14612;BME280;7392;52.078;11.650;2023-03-24T04:54:57;99379.88;;;11.12;100.00
14612;BME280;7392;52.078;11.650;2023-03-24T04:57:25;99378.91;;;11.15;100.00
14612;BME280;7392;52.078;11.650;2023-03-24T05:00:02;99368.28;;;11.15;100.00
14612;BME280;7392;52.078;11.650;2023-03-24T05:02:35;99362.97;;;11.15;100.00
14612;BME280;7392;52.078;11.650;2023-03-24T05:05:10;99348.78;;;11.16;100.00
14612;BME280;7392;52.078;11.650;2023-03-24T05:07:42;99345.19;;;11.17;100.00
14612;BME280;7392;52.078;11.650;2023-03-24T05:10:13;99342.53;;;11.17;100.00
14612;BME280;7392;52.078;11.650;2023-03-24T05:12:47;99347.84;;;11.17;100.00
14612;BME280;7392;52.078;11.650;2023-03-24T05:15:18;99336.28;;;11.19;100.00
14612;BME280;7392;52.078;11.650;2023-03-24T05:17:52;99331.84;;;11.20;100.00
14612;BME280;7392;52.078;11.650;2023-03-24T05:20:23;99335.31;;;11.22;100.00
14612;BME280;7392;52.078;11.650;2023-03-24T05:22:53;99337.13;;;11.21;100.00
14612;BME280;7392;52.078;11.650;2023-03-24T05:25:21;99333.59;;;11.21;100.00
14612;BME280;7392;52.078;11.650;2023-03-24T05:27:49;99332.66;;;11.22;100.00
14612;BME280;7392;52.078;11.650;2023-03-24T05:30:22;99330.91;;;11.22;100.00
14612;BME280;7392;52.078;11.650;2023-03-24T05:32:58;99337.13;;;11.21;100.00
14612;BME280;7392;52.078;11.650;2023-03-24T05:35:28;99323.88;;;11.20;100.00
14612;BME280;7392;52.078;11.650;2023-03-24T05:37:56;99334.56;;;11.17;100.00
14612;BME280;7392;52.078;11.650;2023-03-24T05:40:24;99331.06;;;11.16;100.00
14612;BME280;7392;52.078;11.650;2023-03-24T05:42:56;99340.00;;;11.14;100.00
14612;BME280;7392;52.078;11.650;2023-03-24T05:45:29;99332.06;;;11.12;100.00
14612;BME280;7392;52.078;11.650;2023-03-24T05:48:00;99327.66;;;11.11;100.00
14612;BME280;7392;52.078;11.650;2023-03-24T05:50:45;99324.13;;;11.11;100.00
14612;BME280;7392;52.078;11.650;2023-03-24T05:53:12;99315.22;;;11.12;100.00
14612;BME280;7392;52.078;11.650;2023-03-24T05:55:59;99317.84;;;11.13;100.00
14612;BME280;7392;52.078;11.650;2023-03-24T05:58:47;99316.88;;;11.17;100.00
14612;BME280;7392;52.078;11.650;2023-03-24T06:01:14;99303.44;;;11.22;100.00
14612;BME280;7392;52.078;11.650;2023-03-24T06:03:46;99305.97;;;11.27;100.00
14612;BME280;7392;52.078;11.650;2023-03-24T06:06:15;99305.84;;;11.31;100.00
14612;BME280;7392;52.078;11.650;2023-03-24T06:08:44;99303.06;;;11.36;100.00
14612;BME280;7392;52.078;11.650;2023-03-24T06:11:13;99303.91;;;11.38;100.00
14612;BME280;7392;52.078;11.650;2023-03-24T06:13:52;99304.69;;;11.41;100.00
14612;BME280;7392;52.078;11.650;2023-03-24T06:16:25;99296.69;;;11.41;100.00
14612;BME280;7392;52.078;11.650;2023-03-24T06:18:59;99295.72;;;11.44;100.00
14612;BME280;7392;52.078;11.650;2023-03-24T06:21:53;99286.03;;;11.43;100.00
14612;BME280;7392;52.078;11.650;2023-03-24T06:24:27;99280.66;;;11.45;100.00
14612;BME280;7392;52.078;11.650;2023-03-24T06:27:02;99266.50;;;11.44;100.00
14612;BME280;7392;52.078;11.650;2023-03-24T06:29:34;99269.16;;;11.44;100.00
14612;BME280;7392;52.078;11.650;2023-03-24T06:32:03;99265.59;;;11.45;100.00
14612;BME280;7392;52.078;11.650;2023-03-24T06:34:39;99266.38;;;11.49;100.00
14612;BME280;7392;52.078;11.650;2023-03-24T06:37:15;99259.06;;;11.55;100.00
14612;BME280;7392;52.078;11.650;2023-03-24T06:39:44;99266.97;;;11.58;100.00
14612;BME280;7392;52.078;11.650;2023-03-24T06:42:14;99264.22;;;11.62;100.00
14612;BME280;7392;52.078;11.650;2023-03-24T06:44:44;99277.44;;;11.63;100.00
14612;BME280;7392;52.078;11.650;2023-03-24T06:47:12;99275.59;;;11.67;100.00
14612;BME280;7392;52.078;11.650;2023-03-24T06:49:41;99273.81;;;11.67;100.00
14612;BME280;7392;52.078;11.650;2023-03-24T06:52:09;99272.88;;;11.68;100.00
14612;BME280;7392;52.078;11.650;2023-03-24T06:54:39;99279.94;;;11.69;100.00
14612;BME280;7392;52.078;11.650;2023-03-24T06:57:08;99269.22;;;11.72;100.00
14612;BME280;7392;52.078;11.650;2023-03-24T06:59:55;99277.97;;;11.76;100.00
14612;BME280;7392;52.078;11.650;2023-03-24T07:02:27;99266.25;;;11.82;100.00
14612;BME280;7392;52.078;11.650;2023-03-24T07:05:04;99279.38;;;11.88;100.00
14612;BME280;7392;52.078;11.650;2023-03-24T07:07:41;99270.44;;;11.90;100.00
14612;BME280;7392;52.078;11.650;2023-03-24T07:10:29;99273.06;;;11.92;100.00
14612;BME280;7392;52.078;11.650;2023-03-24T07:12:57;99262.38;;;11.93;100.00
14612;BME280;7392;52.078;11.650;2023-03-24T07:15:26;99253.50;;;11.94;100.00
14612;BME280;7392;52.078;11.650;2023-03-24T07:17:55;99257.88;;;11.95;100.00
14612;BME280;7392;52.078;11.650;2023-03-24T07:20:38;99257.75;;;12.00;100.00
14612;BME280;7392;52.078;11.650;2023-03-24T07:23:10;99261.28;;;12.01;100.00
14612;BME280;7392;52.078;11.650;2023-03-24T07:25:38;99264.66;;;12.06;100.00
14612;BME280;7392;52.078;11.650;2023-03-24T07:28:26;99265.50;;;12.08;100.00
14612;BME280;7392;52.078;11.650;2023-03-24T07:30:54;99260.06;;;12.11;100.00
14612;BME280;7392;52.078;11.650;2023-03-24T07:33:22;99254.69;;;12.12;100.00
14612;BME280;7392;52.078;11.650;2023-03-24T07:35:54;99266.22;;;12.13;100.00
14612;BME280;7392;52.078;11.650;2023-03-24T07:38:24;99259.06;;;12.15;100.00
14612;BME280;7392;52.078;11.650;2023-03-24T07:40:57;99250.84;;;12.21;100.00
14612;BME280;7392;52.078;11.650;2023-03-24T07:43:29;99259.69;;;12.23;100.00
14612;BME280;7392;52.078;11.650;2023-03-24T07:46:06;99265.69;;;12.30;100.00
14612;BME280;7392;52.078;11.650;2023-03-24T07:48:36;99282.38;;;12.35;100.00
14612;BME280;7392;52.078;11.650;2023-03-24T07:51:05;99265.31;;;12.41;100.00
14612;BME280;7392;52.078;11.650;2023-03-24T07:53:44;99267.06;;;12.42;100.00
14612;BME280;7392;52.078;11.650;2023-03-24T07:56:21;99267.84;;;12.45;100.00
14612;BME280;7392;52.078;11.650;2023-03-24T07:58:53;99270.28;;;12.51;100.00
14612;BME280;7392;52.078;11.650;2023-03-24T08:01:31;99267.53;;;12.54;100.00
14612;BME280;7392;52.078;11.650;2023-03-24T08:04:04;99277.09;;;12.60;100.00
14612;BME280;7392;52.078;11.650;2023-03-24T08:07:06;99272.38;;;12.68;100.00
14612;BME280;7392;52.078;11.650;2023-03-24T08:09:34;99289.88;;;12.76;100.00
14612;BME280;7392;52.078;11.650;2023-03-24T08:12:02;99287.03;;;12.82;100.00
14612;BME280;7392;52.078;11.650;2023-03-24T08:14:45;99293.97;;;12.86;100.00
14612;BME280;7392;52.078;11.650;2023-03-24T08:17:13;99293.72;;;12.94;100.00
14612;BME280;7392;52.078;11.650;2023-03-24T08:19:40;99296.16;;;13.00;100.00
14612;BME280;7392;52.078;11.650;2023-03-24T08:22:26;99290.69;;;13.04;100.00
14612;BME280;7392;52.078;11.650;2023-03-24T08:24:54;99287.81;;;13.10;100.00
14612;BME280;7392;52.078;11.650;2023-03-24T08:27:21;99296.63;;;13.13;100.00
14612;BME280;7392;52.078;11.650;2023-03-24T08:29:49;99295.66;;;13.15;100.00
14612;BME280;7392;52.078;11.650;2023-03-24T08:32:17;99302.69;;;13.16;100.00
14612;BME280;7392;52.078;11.650;2023-03-24T08:34:46;99312.50;;;13.16;100.00
14612;BME280;7392;52.078;11.650;2023-03-24T08:37:14;99327.69;;;13.14;100.00
14612;BME280;7392;52.078;11.650;2023-03-24T08:39:43;99325.88;;;13.14;100.00
14612;BME280;7392;52.078;11.650;2023-03-24T08:42:11;99339.22;;;13.14;100.00
14612;BME280;7392;52.078;11.650;2023-03-24T08:44:38;99341.06;;;13.12;100.00
14612;BME280;7392;52.078;11.650;2023-03-24T08:47:07;99362.47;;;13.09;100.00
14612;BME280;7392;52.078;11.650;2023-03-24T08:49:35;99358.13;;;13.06;100.00
14612;BME280;7392;52.078;11.650;2023-03-24T08:52:03;99359.06;;;13.05;100.00
14612;BME280;7392;52.078;11.650;2023-03-24T08:54:31;99372.38;;;13.05;100.00
14612;BME280;7392;52.078;11.650;2023-03-24T08:57:00;99365.25;;;13.06;100.00
14612;BME280;7392;52.078;11.650;2023-03-24T08:59:28;99402.66;;;13.03;100.00
14612;BME280;7392;52.078;11.650;2023-03-24T09:01:55;99386.13;;;12.93;100.00
14612;BME280;7392;52.078;11.650;2023-03-24T09:10:09;99369.13;;;12.69;100.00
14612;BME280;7392;52.078;11.650;2023-03-24T09:12:37;99382.66;;;12.63;100.00
14612;BME280;7392;52.078;11.650;2023-03-24T09:15:07;99387.06;;;12.64;100.00
14612;BME280;7392;52.078;11.650;2023-03-24T09:17:38;99400.69;;;12.83;100.00
14612;BME280;7392;52.078;11.650;2023-03-24T09:20:08;99387.28;;;13.11;100.00
14612;BME280;7392;52.078;11.650;2023-03-24T09:22:37;99390.78;;;13.40;100.00
14612;BME280;7392;52.078;11.650;2023-03-24T09:25:11;99403.56;;;13.55;100.00
14612;BME280;7392;52.078;11.650;2023-03-24T09:27:39;99400.91;;;13.55;100.00
14612;BME280;7392;52.078;11.650;2023-03-24T09:30:08;99390.22;;;13.55;100.00
14612;BME280;7392;52.078;11.650;2023-03-24T09:32:37;99400.00;;;13.56;100.00
14612;BME280;7392;52.078;11.650;2023-03-24T09:35:05;99410.47;;;13.61;100.00
14612;BME280;7392;52.078;11.650;2023-03-24T09:37:35;99397.84;;;13.66;100.00
14612;BME280;7392;52.078;11.650;2023-03-24T09:40:05;99415.25;;;13.76;100.00
14612;BME280;7392;52.078;11.650;2023-03-24T09:42:38;99415.84;;;13.84;100.00
14612;BME280;7392;52.078;11.650;2023-03-24T09:45:11;99411.13;;;13.93;100.00
14612;BME280;7392;52.078;11.650;2023-03-24T09:47:42;99409.03;;;14.01;100.00
14612;BME280;7392;52.078;11.650;2023-03-24T09:50:17;99400.97;;;14.02;100.00
14612;BME280;7392;52.078;11.650;2023-03-24T09:52:51;99406.00;;;14.10;100.00
14612;BME280;7392;52.078;11.650;2023-03-24T09:55:23;99404.97;;;14.14;100.00
14612;BME280;7392;52.078;11.650;2023-03-24T09:57:55;99401.88;;;14.25;99.06
14612;BME280;7392;52.078;11.650;2023-03-24T10:00:26;99398.09;;;14.31;97.45
14612;BME280;7392;52.078;11.650;2023-03-24T10:02:58;99413.00;;;14.36;94.85
14612;BME280;7392;52.078;11.650;2023-03-24T10:05:33;99395.22;;;14.37;92.33
14612;BME280;7392;52.078;11.650;2023-03-24T10:08:09;99403.09;;;14.40;91.88
14612;BME280;7392;52.078;11.650;2023-03-24T10:10:49;99408.31;;;14.43;90.12
14612;BME280;7392;52.078;11.650;2023-03-24T10:13:28;99410.63;;;14.52;89.09
14612;BME280;7392;52.078;11.650;2023-03-24T10:16:04;99414.03;;;14.56;86.23
14612;BME280;7392;52.078;11.650;2023-03-24T10:18:35;99414.84;;;14.58;84.08
14612;BME280;7392;52.078;11.650;2023-03-24T10:21:13;99428.13;;;14.61;82.14
14612;BME280;7392;52.078;11.650;2023-03-24T10:23:51;99414.72;;;14.63;80.77
14612;BME280;7392;52.078;11.650;2023-03-24T10:26:30;99429.88;;;14.62;80.23
14612;BME280;7392;52.078;11.650;2023-03-24T10:29:12;99425.41;;;14.63;78.98
14612;BME280;7392;52.078;11.650;2023-03-24T10:31:47;99428.00;;;14.64;78.95
14612;BME280;7392;52.078;11.650;2023-03-24T10:34:17;99428.69;;;14.69;80.65
14612;BME280;7392;52.078;11.650;2023-03-24T10:37:26;99424.03;;;14.74;83.01
14612;BME280;7392;52.078;11.650;2023-03-24T10:39:55;99418.75;;;14.73;82.48
14612;BME280;7392;52.078;11.650;2023-03-24T10:42:24;99420.56;;;14.72;83.10
14612;BME280;7392;52.078;11.650;2023-03-24T10:44:53;99421.59;;;14.68;81.36
14612;BME280;7392;52.078;11.650;2023-03-24T10:47:24;99424.34;;;14.67;80.46
14612;BME280;7392;52.078;11.650;2023-03-24T10:49:56;99410.97;;;14.67;81.16
14612;BME280;7392;52.078;11.650;2023-03-24T10:52:26;99416.66;;;14.81;82.59
14612;BME280;7392;52.078;11.650;2023-03-24T10:54:57;99425.06;;;14.92;81.61
14612;BME280;7392;52.078;11.650;2023-03-24T10:57:26;99424.09;;;14.95;81.50
14612;BME280;7392;52.078;11.650;2023-03-24T10:59:56;99438.56;;;14.89;78.50
14612;BME280;7392;52.078;11.650;2023-03-24T11:02:27;99437.06;;;14.82;78.37
14612;BME280;7392;52.078;11.650;2023-03-24T11:04:57;99450.69;;;14.76;77.99
14612;BME280;7392;52.078;11.650;2023-03-24T11:07:31;99452.69;;;14.71;78.13
14612;BME280;7392;52.078;11.650;2023-03-24T11:10:05;99452.84;;;14.66;78.03
14612;BME280;7392;52.078;11.650;2023-03-24T11:12:35;99455.59;;;14.65;78.54
14612;BME280;7392;52.078;11.650;2023-03-24T11:15:15;99456.66;;;14.61;78.90
14612;BME280;7392;52.078;11.650;2023-03-24T11:17:52;99449.56;;;14.58;78.05
14612;BME280;7392;52.078;11.650;2023-03-24T11:20:25;99447.22;;;14.50;74.54
14612;BME280;7392;52.078;11.650;2023-03-24T11:22:58;99442.00;;;14.47;73.82
14612;BME280;7392;52.078;11.650;2023-03-24T11:25:27;99458.06;;;14.46;74.48
14612;BME280;7392;52.078;11.650;2023-03-24T11:28:06;99464.38;;;14.43;73.94
14612;BME280;7392;52.078;11.650;2023-03-24T11:30:43;99468.13;;;14.39;73.24
14612;BME280;7392;52.078;11.650;2023-03-24T11:33:18;99468.19;;;14.37;73.33
14612;BME280;7392;52.078;11.650;2023-03-24T11:36:05;99460.22;;;14.36;71.15
14612;BME280;7392;52.078;11.650;2023-03-24T11:38:57;99453.91;;;14.38;70.25
14612;BME280;7392;52.078;11.650;2023-03-24T11:41:26;99459.03;;;14.43;70.95
14612;BME280;7392;52.078;11.650;2023-03-24T11:44:13;99461.56;;;14.48;70.63
14612;BME280;7392;52.078;11.650;2023-03-24T11:46:43;99441.81;;;14.52;70.81
14612;BME280;7392;52.078;11.650;2023-03-24T11:49:15;99431.19;;;14.50;69.48
14612;BME280;7392;52.078;11.650;2023-03-24T11:51:48;99446.53;;;14.45;69.03
14612;BME280;7392;52.078;11.650;2023-03-24T11:54:22;99431.53;;;14.41;69.58
14612;BME280;7392;52.078;11.650;2023-03-24T11:56:56;99443.97;;;14.42;70.21
14612;BME280;7392;52.078;11.650;2023-03-24T11:59:31;99448.41;;;14.41;70.13
14612;BME280;7392;52.078;11.650;2023-03-24T12:02:11;99452.91;;;14.41;69.58
14612;BME280;7392;52.078;11.650;2023-03-24T12:04:47;99456.44;;;14.41;70.02
14612;BME280;7392;52.078;11.650;2023-03-24T12:07:41;99462.63;;;14.44;70.15
14612;BME280;7392;52.078;11.650;2023-03-24T12:10:21;99475.00;;;14.45;70.24
14612;BME280;7392;52.078;11.650;2023-03-24T12:12:59;99459.84;;;14.47;70.93
14612;BME280;7392;52.078;11.650;2023-03-24T12:15:51;99474.78;;;14.51;71.22
14612;BME280;7392;52.078;11.650;2023-03-24T12:18:36;99457.59;;;14.58;71.91
14612;BME280;7392;52.078;11.650;2023-03-24T12:21:13;99476.03;;;14.66;71.50
14612;BME280;7392;52.078;11.650;2023-03-24T12:23:53;99487.47;;;14.69;70.91
14612;BME280;7392;52.078;11.650;2023-03-24T12:26:25;99477.53;;;14.73;70.40
14612;BME280;7392;52.078;11.650;2023-03-24T12:28:57;99484.59;;;14.74;68.73
14612;BME280;7392;52.078;11.650;2023-03-24T12:31:37;99482.03;;;14.72;68.96
14612;BME280;7392;52.078;11.650;2023-03-24T12:34:24;99487.38;;;14.72;69.50
14612;BME280;7392;52.078;11.650;2023-03-24T12:36:58;99483.06;;;14.68;68.67
14612;BME280;7392;52.078;11.650;2023-03-24T12:39:31;99494.75;;;14.66;67.96
14612;BME280;7392;52.078;11.650;2023-03-24T12:42:07;99485.97;;;14.62;67.68
14612;BME280;7392;52.078;11.650;2023-03-24T12:47:40;99512.75;;;14.61;67.06
14612;BME280;7392;52.078;11.650;2023-03-24T12:50:25;99559.28;;;14.53;65.93
14612;BME280;7392;52.078;11.650;2023-03-24T12:53:05;99571.94;;;14.48;66.88
14612;BME280;7392;52.078;11.650;2023-03-24T12:55:42;99569.50;;;14.42;67.66
14612;BME280;7392;52.078;11.650;2023-03-24T12:58:13;99562.56;;;14.36;67.26
14612;BME280;7392;52.078;11.650;2023-03-24T13:00:55;99585.03;;;14.31;68.08
14612;BME280;7392;52.078;11.650;2023-03-24T13:03:28;99582.47;;;14.28;68.50
14612;BME280;7392;52.078;11.650;2023-03-24T13:06:06;99560.63;;;14.16;68.89
14612;BME280;7392;52.078;11.650;2023-03-24T13:08:46;99561.69;;;14.11;69.59
14612;BME280;7392;52.078;11.650;2023-03-24T13:11:19;99545.97;;;14.03;69.92
14612;BME280;7392;52.078;11.650;2023-03-24T13:14:00;99525.78;;;13.96;69.30
14612;BME280;7392;52.078;11.650;2023-03-24T13:16:33;99511.63;;;13.94;68.61
14612;BME280;7392;52.078;11.650;2023-03-24T13:19:03;99492.53;;;14.05;69.15
14612;BME280;7392;52.078;11.650;2023-03-24T13:21:39;99467.13;;;14.18;67.80
14612;BME280;7392;52.078;11.650;2023-03-24T13:24:10;99459.00;;;14.21;65.49
14612;BME280;7392;52.078;11.650;2023-03-24T13:26:46;99444.66;;;14.24;64.88
14612;BME280;7392;52.078;11.650;2023-03-24T13:29:24;99440.19;;;14.24;64.46
14612;BME280;7392;52.078;11.650;2023-03-24T13:32:20;99460.28;;;14.34;64.09
14612;BME280;7392;52.078;11.650;2023-03-24T13:34:54;99467.66;;;14.51;64.21
14612;BME280;7392;52.078;11.650;2023-03-24T13:37:26;99470.50;;;14.70;64.19
14612;BME280;7392;52.078;11.650;2023-03-24T13:39:57;99460.31;;;14.80;63.13
14612;BME280;7392;52.078;11.650;2023-03-24T13:42:30;99455.59;;;14.87;62.79